sensor_id;sensor_type;location;lat;lon;timestamp;P1;durP1;ratioP1;P2;durP2;ratioP2
7761;SDS011;3925;48.636;9.516;2022-12-07T00:01:58;6.67;;;5.23;;
7761;SDS011;3925;48.636;9.516;2022-12-07T00:04:25;6.10;;;5.60;;
7761;SDS011;3925;48.636;9.516;2022-12-07T00:06:52;6.10;;;5.60;;
7761;SDS011;3925;48.636;9.516;2022-12-07T00:09:19;5.80;;;5.30;;
7761;SDS011;3925;48.636;9.516;2022-12-07T00:11:48;6.40;;;5.70;;
7761;SDS011;3925;48.636;9.516;2022-12-07T00:14:16;5.43;;;4.93;;
7761;SDS011;3925;48.636;9.516;2022-12-07T00:16:44;7.70;;;6.03;;
7761;SDS011;3925;48.636;9.516;2022-12-07T00:19:12;6.23;;;5.63;;
7761;SDS011;3925;48.636;9.516;2022-12-07T00:21:40;6.33;;;5.73;;
7761;SDS011;3925;48.636;9.516;2022-12-07T00:24:07;5.53;;;4.97;;
7761;SDS011;3925;48.636;9.516;2022-12-07T00:26:36;5.90;;;5.37;;
7761;SDS011;3925;48.636;9.516;2022-12-07T00:29:06;6.50;;;4.90;;
7761;SDS011;3925;48.636;9.516;2022-12-07T00:31:36;6.20;;;5.70;;
7761;SDS011;3925;48.636;9.516;2022-12-07T00:34:05;6.80;;;6.07;;
7761;SDS011;3925;48.636;9.516;2022-12-07T00:36:33;6.63;;;6.03;;
7761;SDS011;3925;48.636;9.516;2022-12-07T00:39:00;5.40;;;4.90;;
7761;SDS011;3925;48.636;9.516;2022-12-07T00:41:27;6.83;;;6.10;;
7761;SDS011;3925;48.636;9.516;2022-12-07T00:43:55;6.07;;;5.50;;
7761;SDS011;3925;48.636;9.516;2022-12-07T00:46:22;6.90;;;6.20;;
7761;SDS011;3925;48.636;9.516;2022-12-07T00:48:50;6.83;;;6.23;;
7761;SDS011;3925;48.636;9.516;2022-12-07T00:51:19;7.47;;;5.87;;
7761;SDS011;3925;48.636;9.516;2022-12-07T00:53:47;5.53;;;5.03;;
7761;SDS011;3925;48.636;9.516;2022-12-07T00:56:15;6.13;;;5.53;;
7761;SDS011;3925;48.636;9.516;2022-12-07T00:58:43;8.03;;;6.50;;
7761;SDS011;3925;48.636;9.516;2022-12-07T01:01:10;8.80;;;7.13;;
7761;SDS011;3925;48.636;9.516;2022-12-07T01:03:37;7.90;;;7.17;;
7761;SDS011;3925;48.636;9.516;2022-12-07T01:06:05;7.80;;;6.73;;
7761;SDS011;3925;48.636;9.516;2022-12-07T01:08:34;5.63;;;5.13;;
7761;SDS011;3925;48.636;9.516;2022-12-07T01:11:01;7.67;;;6.47;;
7761;SDS011;3925;48.636;9.516;2022-12-07T01:13:32;7.77;;;5.70;;
7761;SDS011;3925;48.636;9.516;2022-12-07T01:16:00;6.87;;;6.07;;
7761;SDS011;3925;48.636;9.516;2022-12-07T01:18:29;8.97;;;6.80;;
7761;SDS011;3925;48.636;9.516;2022-12-07T01:20:58;10.57;;;8.17;;
7761;SDS011;3925;48.636;9.516;2022-12-07T01:23:26;8.90;;;5.50;;
7761;SDS011;3925;48.636;9.516;2022-12-07T01:25:55;7.23;;;6.53;;
7761;SDS011;3925;48.636;9.516;2022-12-07T01:28:23;7.27;;;6.43;;
7761;SDS011;3925;48.636;9.516;2022-12-07T01:30:57;7.23;;;6.00;;
7761;SDS011;3925;48.636;9.516;2022-12-07T01:33:26;5.70;;;5.20;;
7761;SDS011;3925;48.636;9.516;2022-12-07T01:35:53;6.83;;;5.00;;
7761;SDS011;3925;48.636;9.516;2022-12-07T01:38:20;6.93;;;6.33;;
7761;SDS011;3925;48.636;9.516;2022-12-07T01:40:53;5.83;;;5.27;;
7761;SDS011;3925;48.636;9.516;2022-12-07T01:43:23;6.87;;;5.87;;
7761;SDS011;3925;48.636;9.516;2022-12-07T01:45:52;5.70;;;5.10;;
7761;SDS011;3925;48.636;9.516;2022-12-07T01:48:20;6.63;;;5.73;;
7761;SDS011;3925;48.636;9.516;2022-12-07T01:50:50;8.30;;;6.67;;
7761;SDS011;3925;48.636;9.516;2022-12-07T01:53:19;7.07;;;5.97;;
7761;SDS011;3925;48.636;9.516;2022-12-07T01:55:48;6.40;;;5.80;;
7761;SDS011;3925;48.636;9.516;2022-12-07T01:58:19;7.00;;;5.40;;
7761;SDS011;3925;48.636;9.516;2022-12-07T02:00:47;6.53;;;5.50;;
7761;SDS011;3925;48.636;9.516;2022-12-07T02:03:15;7.37;;;6.67;;
7761;SDS011;3925;48.636;9.516;2022-12-07T02:05:46;5.70;;;5.23;;
7761;SDS011;3925;48.636;9.516;2022-12-07T02:08:14;6.67;;;5.97;;
7761;SDS011;3925;48.636;9.516;2022-12-07T02:10:42;7.10;;;6.43;;
7761;SDS011;3925;48.636;9.516;2022-12-07T02:13:10;6.60;;;6.00;;
7761;SDS011;3925;48.636;9.516;2022-12-07T02:18:35;7.80;;;7.00;;
7761;SDS011;3925;48.636;9.516;2022-12-07T02:21:11;8.77;;;6.80;;
7761;SDS011;3925;48.636;9.516;2022-12-07T02:26:55;7.73;;;6.93;;
7761;SDS011;3925;48.636;9.516;2022-12-07T02:29:47;7.73;;;6.93;;
7761;SDS011;3925;48.636;9.516;2022-12-07T02:32:18;8.30;;;7.50;;
7761;SDS011;3925;48.636;9.516;2022-12-07T02:34:51;7.80;;;7.00;;
7761;SDS011;3925;48.636;9.516;2022-12-07T02:37:26;9.10;;;7.90;;
7761;SDS011;3925;48.636;9.516;2022-12-07T02:40:08;7.53;;;6.80;;
7761;SDS011;3925;48.636;9.516;2022-12-07T02:42:42;9.23;;;8.33;;
7761;SDS011;3925;48.636;9.516;2022-12-07T02:45:15;9.10;;;7.30;;
7761;SDS011;3925;48.636;9.516;2022-12-07T02:47:47;8.00;;;7.20;;
7761;SDS011;3925;48.636;9.516;2022-12-07T02:50:18;8.43;;;7.37;;
7761;SDS011;3925;48.636;9.516;2022-12-07T02:52:46;8.43;;;7.57;;
7761;SDS011;3925;48.636;9.516;2022-12-07T02:55:12;8.47;;;7.20;;
7761;SDS011;3925;48.636;9.516;2022-12-07T02:57:47;8.13;;;7.33;;
7761;SDS011;3925;48.636;9.516;2022-12-07T03:00:23;9.27;;;7.60;;
7761;SDS011;3925;48.636;9.516;2022-12-07T03:02:52;8.63;;;7.83;;
7761;SDS011;3925;48.636;9.516;2022-12-07T03:08:29;9.77;;;8.00;;
7761;SDS011;3925;48.636;9.516;2022-12-07T03:11:02;12.10;;;8.37;;
7761;SDS011;3925;48.636;9.516;2022-12-07T03:13:33;10.80;;;9.10;;
7761;SDS011;3925;48.636;9.516;2022-12-07T03:16:08;10.80;;;9.00;;
7761;SDS011;3925;48.636;9.516;2022-12-07T03:18:39;9.87;;;8.77;;
7761;SDS011;3925;48.636;9.516;2022-12-07T03:21:09;11.50;;;9.00;;
7761;SDS011;3925;48.636;9.516;2022-12-07T03:23:40;10.30;;;8.50;;
7761;SDS011;3925;48.636;9.516;2022-12-07T03:26:09;10.07;;;8.63;;
7761;SDS011;3925;48.636;9.516;2022-12-07T03:28:41;10.23;;;8.90;;
7761;SDS011;3925;48.636;9.516;2022-12-07T03:31:18;11.20;;;9.30;;
7761;SDS011;3925;48.636;9.516;2022-12-07T03:33:48;9.27;;;8.33;;
7761;SDS011;3925;48.636;9.516;2022-12-07T03:36:20;10.77;;;9.23;;
7761;SDS011;3925;48.636;9.516;2022-12-07T03:38:53;9.27;;;8.33;;
7761;SDS011;3925;48.636;9.516;2022-12-07T03:41:24;10.13;;;9.13;;
7761;SDS011;3925;48.636;9.516;2022-12-07T03:43:53;11.40;;;9.30;;
7761;SDS011;3925;48.636;9.516;2022-12-07T03:46:25;10.57;;;9.33;;
7761;SDS011;3925;48.636;9.516;2022-12-07T03:49:00;10.37;;;8.90;;
7761;SDS011;3925;48.636;9.516;2022-12-07T03:51:37;11.67;;;9.07;;
7761;SDS011;3925;48.636;9.516;2022-12-07T03:54:09;15.10;;;9.27;;
7761;SDS011;3925;48.636;9.516;2022-12-07T03:56:40;13.03;;;10.27;;
7761;SDS011;3925;48.636;9.516;2022-12-07T03:59:09;10.10;;;9.03;;
7761;SDS011;3925;48.636;9.516;2022-12-07T04:01:42;11.30;;;9.23;;
7761;SDS011;3925;48.636;9.516;2022-12-07T04:04:10;12.27;;;8.90;;
7761;SDS011;3925;48.636;9.516;2022-12-07T04:06:37;11.87;;;9.90;;
7761;SDS011;3925;48.636;9.516;2022-12-07T04:09:04;11.17;;;9.40;;
7761;SDS011;3925;48.636;9.516;2022-12-07T04:11:31;13.03;;;9.80;;
7761;SDS011;3925;48.636;9.516;2022-12-07T04:13:58;12.40;;;9.17;;
7761;SDS011;3925;48.636;9.516;2022-12-07T04:16:44;10.23;;;8.10;;
7761;SDS011;3925;48.636;9.516;2022-12-07T04:19:11;11.00;;;8.77;;
7761;SDS011;3925;48.636;9.516;2022-12-07T04:21:38;13.67;;;9.63;;
7761;SDS011;3925;48.636;9.516;2022-12-07T04:24:05;13.43;;;10.10;;
7761;SDS011;3925;48.636;9.516;2022-12-07T04:26:32;14.90;;;11.23;;
7761;SDS011;3925;48.636;9.516;2022-12-07T04:28:59;9.93;;;8.73;;
7761;SDS011;3925;48.636;9.516;2022-12-07T04:31:26;11.83;;;9.20;;
7761;SDS011;3925;48.636;9.516;2022-12-07T04:33:55;9.90;;;8.80;;
7761;SDS011;3925;48.636;9.516;2022-12-07T04:36:21;11.90;;;9.30;;
7761;SDS011;3925;48.636;9.516;2022-12-07T04:38:49;11.83;;;9.67;;
7761;SDS011;3925;48.636;9.516;2022-12-07T04:41:15;11.03;;;9.20;;
7761;SDS011;3925;48.636;9.516;2022-12-07T04:43:42;10.27;;;9.20;;
7761;SDS011;3925;48.636;9.516;2022-12-07T04:46:09;11.53;;;9.13;;
7761;SDS011;3925;48.636;9.516;2022-12-07T04:48:36;10.97;;;9.80;;
7761;SDS011;3925;48.636;9.516;2022-12-07T04:51:05;15.80;;;11.53;;
7761;SDS011;3925;48.636;9.516;2022-12-07T04:53:32;13.10;;;9.60;;
7761;SDS011;3925;48.636;9.516;2022-12-07T04:55:59;11.50;;;9.87;;
7761;SDS011;3925;48.636;9.516;2022-12-07T04:58:26;12.23;;;10.03;;
7761;SDS011;3925;48.636;9.516;2022-12-07T05:00:53;15.00;;;9.97;;
7761;SDS011;3925;48.636;9.516;2022-12-07T05:03:20;14.00;;;9.20;;
7761;SDS011;3925;48.636;9.516;2022-12-07T05:05:47;12.63;;;10.40;;
7761;SDS011;3925;48.636;9.516;2022-12-07T05:08:16;13.20;;;10.00;;
7761;SDS011;3925;48.636;9.516;2022-12-07T05:10:43;12.10;;;9.77;;
7761;SDS011;3925;48.636;9.516;2022-12-07T05:13:09;11.10;;;9.47;;
7761;SDS011;3925;48.636;9.516;2022-12-07T05:15:36;11.07;;;9.77;;
7761;SDS011;3925;48.636;9.516;2022-12-07T05:18:03;12.23;;;9.90;;
7761;SDS011;3925;48.636;9.516;2022-12-07T05:20:30;11.70;;;9.63;;
7761;SDS011;3925;48.636;9.516;2022-12-07T05:22:57;11.40;;;9.60;;
7761;SDS011;3925;48.636;9.516;2022-12-07T05:25:26;12.43;;;10.57;;
7761;SDS011;3925;48.636;9.516;2022-12-07T05:27:54;13.23;;;9.73;;
7761;SDS011;3925;48.636;9.516;2022-12-07T05:30:21;14.77;;;10.30;;
7761;SDS011;3925;48.636;9.516;2022-12-07T05:32:48;15.13;;;11.37;;
7761;SDS011;3925;48.636;9.516;2022-12-07T05:35:15;12.87;;;11.47;;
7761;SDS011;3925;48.636;9.516;2022-12-07T05:37:42;14.27;;;11.73;;
7761;SDS011;3925;48.636;9.516;2022-12-07T05:40:09;14.00;;;11.40;;
7761;SDS011;3925;48.636;9.516;2022-12-07T05:42:38;16.47;;;11.83;;
7761;SDS011;3925;48.636;9.516;2022-12-07T05:45:06;16.33;;;11.87;;
7761;SDS011;3925;48.636;9.516;2022-12-07T05:47:34;16.20;;;11.57;;
7761;SDS011;3925;48.636;9.516;2022-12-07T05:50:01;20.37;;;13.27;;
7761;SDS011;3925;48.636;9.516;2022-12-07T05:52:28;16.07;;;12.70;;
7761;SDS011;3925;48.636;9.516;2022-12-07T05:54:56;16.20;;;12.23;;
7761;SDS011;3925;48.636;9.516;2022-12-07T05:57:23;12.00;;;10.30;;
7761;SDS011;3925;48.636;9.516;2022-12-07T05:59:51;17.77;;;13.07;;
7761;SDS011;3925;48.636;9.516;2022-12-07T06:02:17;15.73;;;9.93;;
7761;SDS011;3925;48.636;9.516;2022-12-07T06:04:44;13.70;;;10.80;;
7761;SDS011;3925;48.636;9.516;2022-12-07T06:07:13;14.97;;;11.40;;
7761;SDS011;3925;48.636;9.516;2022-12-07T06:09:41;15.53;;;11.00;;
7761;SDS011;3925;48.636;9.516;2022-12-07T06:12:09;15.80;;;11.83;;
7761;SDS011;3925;48.636;9.516;2022-12-07T06:14:56;14.43;;;11.07;;
7761;SDS011;3925;48.636;9.516;2022-12-07T06:17:23;15.43;;;10.63;;
7761;SDS011;3925;48.636;9.516;2022-12-07T06:19:50;14.10;;;10.50;;
7761;SDS011;3925;48.636;9.516;2022-12-07T06:22:17;12.37;;;10.47;;
7761;SDS011;3925;48.636;9.516;2022-12-07T06:24:44;13.37;;;10.50;;
7761;SDS011;3925;48.636;9.516;2022-12-07T06:27:11;15.50;;;10.63;;
7761;SDS011;3925;48.636;9.516;2022-12-07T06:29:38;13.13;;;10.70;;
7761;SDS011;3925;48.636;9.516;2022-12-07T06:32:06;11.70;;;9.33;;
7761;SDS011;3925;48.636;9.516;2022-12-07T06:34:34;13.40;;;10.33;;
7761;SDS011;3925;48.636;9.516;2022-12-07T06:37:01;13.87;;;11.33;;
7761;SDS011;3925;48.636;9.516;2022-12-07T06:39:28;15.80;;;11.30;;
7761;SDS011;3925;48.636;9.516;2022-12-07T06:41:56;12.60;;;10.70;;
7761;SDS011;3925;48.636;9.516;2022-12-07T06:44:23;13.50;;;10.17;;
7761;SDS011;3925;48.636;9.516;2022-12-07T06:46:50;13.50;;;11.20;;
7761;SDS011;3925;48.636;9.516;2022-12-07T06:49:19;12.47;;;9.83;;
7761;SDS011;3925;48.636;9.516;2022-12-07T06:51:46;11.33;;;7.97;;
7761;SDS011;3925;48.636;9.516;2022-12-07T06:54:13;11.10;;;8.57;;
7761;SDS011;3925;48.636;9.516;2022-12-07T06:56:41;13.77;;;9.30;;
7761;SDS011;3925;48.636;9.516;2022-12-07T06:59:08;10.17;;;8.43;;
7761;SDS011;3925;48.636;9.516;2022-12-07T07:01:35;11.80;;;9.37;;
7761;SDS011;3925;48.636;9.516;2022-12-07T07:04:02;11.43;;;10.10;;
7761;SDS011;3925;48.636;9.516;2022-12-07T07:06:31;12.90;;;10.40;;
7761;SDS011;3925;48.636;9.516;2022-12-07T07:08:58;12.30;;;9.13;;
7761;SDS011;3925;48.636;9.516;2022-12-07T07:11:25;12.90;;;8.30;;
7761;SDS011;3925;48.636;9.516;2022-12-07T07:13:52;11.53;;;9.50;;
7761;SDS011;3925;48.636;9.516;2022-12-07T07:16:22;12.73;;;9.70;;
7761;SDS011;3925;48.636;9.516;2022-12-07T07:18:49;13.17;;;9.70;;
7761;SDS011;3925;48.636;9.516;2022-12-07T07:21:16;12.30;;;10.00;;
7761;SDS011;3925;48.636;9.516;2022-12-07T07:23:45;12.50;;;8.70;;
7761;SDS011;3925;48.636;9.516;2022-12-07T07:26:12;15.33;;;9.83;;
7761;SDS011;3925;48.636;9.516;2022-12-07T07:28:39;12.60;;;9.57;;
7761;SDS011;3925;48.636;9.516;2022-12-07T07:31:05;19.87;;;14.00;;
7761;SDS011;3925;48.636;9.516;2022-12-07T07:33:32;10.87;;;8.70;;
7761;SDS011;3925;48.636;9.516;2022-12-07T07:35:59;11.53;;;9.90;;
7761;SDS011;3925;48.636;9.516;2022-12-07T07:38:27;10.20;;;7.90;;
7761;SDS011;3925;48.636;9.516;2022-12-07T07:40:55;12.70;;;8.63;;
7761;SDS011;3925;48.636;9.516;2022-12-07T07:43:22;10.27;;;8.43;;
7761;SDS011;3925;48.636;9.516;2022-12-07T07:45:49;11.27;;;8.67;;
7761;SDS011;3925;48.636;9.516;2022-12-07T07:48:16;9.00;;;7.83;;
7761;SDS011;3925;48.636;9.516;2022-12-07T07:50:43;10.07;;;7.57;;
7761;SDS011;3925;48.636;9.516;2022-12-07T07:53:10;10.20;;;8.50;;
7761;SDS011;3925;48.636;9.516;2022-12-07T07:55:37;11.07;;;7.47;;
7761;SDS011;3925;48.636;9.516;2022-12-07T07:58:05;11.50;;;8.67;;
7761;SDS011;3925;48.636;9.516;2022-12-07T08:00:32;9.40;;;8.30;;
7761;SDS011;3925;48.636;9.516;2022-12-07T08:02:59;9.60;;;8.60;;
7761;SDS011;3925;48.636;9.516;2022-12-07T08:05:26;8.93;;;8.00;;
7761;SDS011;3925;48.636;9.516;2022-12-07T08:07:53;10.70;;;8.43;;
7761;SDS011;3925;48.636;9.516;2022-12-07T08:10:19;11.07;;;9.97;;
7761;SDS011;3925;48.636;9.516;2022-12-07T08:12:46;8.57;;;7.53;;
7761;SDS011;3925;48.636;9.516;2022-12-07T08:15:32;10.33;;;7.80;;
7761;SDS011;3925;48.636;9.516;2022-12-07T08:17:59;8.87;;;7.67;;
7761;SDS011;3925;48.636;9.516;2022-12-07T08:20:26;9.30;;;7.63;;
7761;SDS011;3925;48.636;9.516;2022-12-07T08:22:53;10.27;;;8.17;;
7761;SDS011;3925;48.636;9.516;2022-12-07T08:25:20;8.20;;;6.77;;
7761;SDS011;3925;48.636;9.516;2022-12-07T08:27:47;8.27;;;7.20;;
7761;SDS011;3925;48.636;9.516;2022-12-07T08:30:14;9.73;;;7.50;;
7761;SDS011;3925;48.636;9.516;2022-12-07T08:32:43;8.93;;;6.93;;
7761;SDS011;3925;48.636;9.516;2022-12-07T08:35:11;7.33;;;6.63;;
7761;SDS011;3925;48.636;9.516;2022-12-07T08:37:38;8.60;;;7.50;;
7761;SDS011;3925;48.636;9.516;2022-12-07T08:40:06;9.93;;;7.37;;
7761;SDS011;3925;48.636;9.516;2022-12-07T08:42:35;9.33;;;7.63;;
7761;SDS011;3925;48.636;9.516;2022-12-07T08:45:05;8.17;;;7.37;;
7761;SDS011;3925;48.636;9.516;2022-12-07T08:47:33;8.67;;;7.10;;
7761;SDS011;3925;48.636;9.516;2022-12-07T08:50:02;9.47;;;7.70;;
7761;SDS011;3925;48.636;9.516;2022-12-07T08:52:32;10.37;;;8.00;;
7761;SDS011;3925;48.636;9.516;2022-12-07T08:55:01;8.43;;;7.53;;
7761;SDS011;3925;48.636;9.516;2022-12-07T08:57:29;8.63;;;6.97;;
7761;SDS011;3925;48.636;9.516;2022-12-07T08:59:58;8.13;;;7.00;;
7761;SDS011;3925;48.636;9.516;2022-12-07T09:02:25;8.60;;;7.70;;
7761;SDS011;3925;48.636;9.516;2022-12-07T09:04:53;8.73;;;7.07;;
7761;SDS011;3925;48.636;9.516;2022-12-07T09:07:21;11.80;;;8.47;;
7761;SDS011;3925;48.636;9.516;2022-12-07T09:09:48;8.03;;;7.20;;
7761;SDS011;3925;48.636;9.516;2022-12-07T09:12:15;7.60;;;6.77;;
7761;SDS011;3925;48.636;9.516;2022-12-07T09:14:42;7.97;;;7.20;;
7761;SDS011;3925;48.636;9.516;2022-12-07T09:17:10;10.57;;;8.07;;
7761;SDS011;3925;48.636;9.516;2022-12-07T09:19:38;8.67;;;7.50;;
7761;SDS011;3925;48.636;9.516;2022-12-07T09:22:07;9.37;;;8.10;;
7761;SDS011;3925;48.636;9.516;2022-12-07T09:24:36;8.60;;;7.70;;
7761;SDS011;3925;48.636;9.516;2022-12-07T09:27:03;7.70;;;6.90;;
7761;SDS011;3925;48.636;9.516;2022-12-07T09:29:30;8.20;;;6.50;;
7761;SDS011;3925;48.636;9.516;2022-12-07T09:31:56;7.63;;;6.30;;
7761;SDS011;3925;48.636;9.516;2022-12-07T09:34:23;8.80;;;5.97;;
7761;SDS011;3925;48.636;9.516;2022-12-07T09:36:51;6.90;;;6.20;;
7761;SDS011;3925;48.636;9.516;2022-12-07T09:39:18;6.60;;;5.40;;
7761;SDS011;3925;48.636;9.516;2022-12-07T09:41:46;6.43;;;5.83;;
7761;SDS011;3925;48.636;9.516;2022-12-07T09:44:14;7.43;;;6.23;;
7761;SDS011;3925;48.636;9.516;2022-12-07T09:46:46;6.10;;;5.60;;
7761;SDS011;3925;48.636;9.516;2022-12-07T09:49:16;6.50;;;5.80;;
7761;SDS011;3925;48.636;9.516;2022-12-07T09:51:45;6.73;;;6.13;;
7761;SDS011;3925;48.636;9.516;2022-12-07T09:54:13;7.97;;;6.30;;
7761;SDS011;3925;48.636;9.516;2022-12-07T09:56:41;5.90;;;5.20;;
7761;SDS011;3925;48.636;9.516;2022-12-07T09:59:12;6.73;;;6.00;;
7761;SDS011;3925;48.636;9.516;2022-12-07T10:01:42;5.77;;;5.17;;
7761;SDS011;3925;48.636;9.516;2022-12-07T10:04:12;6.47;;;5.80;;
7761;SDS011;3925;48.636;9.516;2022-12-07T10:06:42;6.70;;;6.07;;
7761;SDS011;3925;48.636;9.516;2022-12-07T10:09:11;6.67;;;5.40;;
7761;SDS011;3925;48.636;9.516;2022-12-07T10:11:58;5.70;;;4.70;;
7761;SDS011;3925;48.636;9.516;2022-12-07T10:14:32;6.13;;;5.27;;
7761;SDS011;3925;48.636;9.516;2022-12-07T10:17:00;5.03;;;4.60;;
7761;SDS011;3925;48.636;9.516;2022-12-07T10:19:28;6.23;;;5.10;;
7761;SDS011;3925;48.636;9.516;2022-12-07T10:22:00;5.87;;;4.80;;
7761;SDS011;3925;48.636;9.516;2022-12-07T10:24:35;5.87;;;4.90;;
7761;SDS011;3925;48.636;9.516;2022-12-07T10:27:04;4.50;;;4.10;;
7761;SDS011;3925;48.636;9.516;2022-12-07T10:29:46;7.50;;;5.17;;
7761;SDS011;3925;48.636;9.516;2022-12-07T10:32:27;4.97;;;4.47;;
7761;SDS011;3925;48.636;9.516;2022-12-07T10:35:15;4.87;;;4.37;;
7761;SDS011;3925;48.636;9.516;2022-12-07T10:37:46;8.20;;;4.50;;
7761;SDS011;3925;48.636;9.516;2022-12-07T10:40:23;4.20;;;3.80;;
7761;SDS011;3925;48.636;9.516;2022-12-07T10:43:00;4.63;;;4.23;;
7761;SDS011;3925;48.636;9.516;2022-12-07T10:45:30;4.90;;;3.47;;
7761;SDS011;3925;48.636;9.516;2022-12-07T10:47:59;4.67;;;4.27;;
7761;SDS011;3925;48.636;9.516;2022-12-07T10:50:38;4.40;;;4.00;;
7761;SDS011;3925;48.636;9.516;2022-12-07T10:53:17;3.37;;;3.07;;
7761;SDS011;3925;48.636;9.516;2022-12-07T10:56:02;6.53;;;4.30;;
7761;SDS011;3925;48.636;9.516;2022-12-07T10:58:55;4.80;;;4.20;;
7761;SDS011;3925;48.636;9.516;2022-12-07T11:01:41;8.23;;;4.90;;
7761;SDS011;3925;48.636;9.516;2022-12-07T11:04:15;4.40;;;4.00;;
7761;SDS011;3925;48.636;9.516;2022-12-07T11:06:52;6.00;;;4.77;;
7761;SDS011;3925;48.636;9.516;2022-12-07T11:09:30;5.27;;;4.13;;
7761;SDS011;3925;48.636;9.516;2022-12-07T11:12:16;3.63;;;3.43;;
7761;SDS011;3925;48.636;9.516;2022-12-07T11:14:54;6.20;;;3.53;;
7761;SDS011;3925;48.636;9.516;2022-12-07T11:17:31;3.60;;;3.30;;
7761;SDS011;3925;48.636;9.516;2022-12-07T11:20:05;3.67;;;3.37;;
7761;SDS011;3925;48.636;9.516;2022-12-07T11:22:47;3.70;;;3.40;;
7761;SDS011;3925;48.636;9.516;2022-12-07T11:25:22;3.53;;;3.03;;
7761;SDS011;3925;48.636;9.516;2022-12-07T11:27:59;4.07;;;3.50;;
7761;SDS011;3925;48.636;9.516;2022-12-07T11:30:39;3.63;;;3.33;;
7761;SDS011;3925;48.636;9.516;2022-12-07T11:33:17;3.57;;;3.27;;
7761;SDS011;3925;48.636;9.516;2022-12-07T11:35:54;3.97;;;3.60;;
7761;SDS011;3925;48.636;9.516;2022-12-07T11:38:31;5.57;;;3.23;;
7761;SDS011;3925;48.636;9.516;2022-12-07T11:41:04;3.43;;;3.13;;
7761;SDS011;3925;48.636;9.516;2022-12-07T11:46:36;3.30;;;3.00;;
7761;SDS011;3925;48.636;9.516;2022-12-07T11:49:12;3.40;;;3.10;;
7761;SDS011;3925;48.636;9.516;2022-12-07T11:51:45;4.80;;;4.40;;
7761;SDS011;3925;48.636;9.516;2022-12-07T11:54:17;3.57;;;2.83;;
7761;SDS011;3925;48.636;9.516;2022-12-07T11:56:50;4.00;;;3.70;;
7761;SDS011;3925;48.636;9.516;2022-12-07T11:59:22;3.20;;;2.90;;
7761;SDS011;3925;48.636;9.516;2022-12-07T12:01:54;3.20;;;2.87;;
7761;SDS011;3925;48.636;9.516;2022-12-07T12:04:30;3.50;;;3.20;;
7761;SDS011;3925;48.636;9.516;2022-12-07T12:07:06;4.10;;;3.70;;
7761;SDS011;3925;48.636;9.516;2022-12-07T12:09:34;6.00;;;3.20;;
7761;SDS011;3925;48.636;9.516;2022-12-07T12:15:00;3.50;;;3.10;;
7761;SDS011;3925;48.636;9.516;2022-12-07T12:20:35;3.53;;;3.20;;
7761;SDS011;3925;48.636;9.516;2022-12-07T12:23:09;3.83;;;3.43;;
7761;SDS011;3925;48.636;9.516;2022-12-07T12:25:39;3.90;;;3.50;;
7761;SDS011;3925;48.636;9.516;2022-12-07T12:28:17;3.90;;;3.50;;
7761;SDS011;3925;48.636;9.516;2022-12-07T12:31:03;3.30;;;3.00;;
7761;SDS011;3925;48.636;9.516;2022-12-07T12:33:32;3.33;;;3.00;;
7761;SDS011;3925;48.636;9.516;2022-12-07T12:36:19;6.10;;;4.10;;
7761;SDS011;3925;48.636;9.516;2022-12-07T12:38:49;4.63;;;4.20;;
7761;SDS011;3925;48.636;9.516;2022-12-07T12:47:53;3.57;;;2.87;;
7761;SDS011;3925;48.636;9.516;2022-12-07T12:50:26;4.67;;;3.87;;
7761;SDS011;3925;48.636;9.516;2022-12-07T12:53:11;9.40;;;4.70;;
7761;SDS011;3925;48.636;9.516;2022-12-07T13:01:51;4.40;;;4.03;;
7761;SDS011;3925;48.636;9.516;2022-12-07T13:04:47;4.03;;;3.50;;
7761;SDS011;3925;48.636;9.516;2022-12-07T13:10:37;5.43;;;4.10;;
7761;SDS011;3925;48.636;9.516;2022-12-07T13:19:24;5.77;;;4.67;;
7761;SDS011;3925;48.636;9.516;2022-12-07T13:25:07;8.83;;;6.10;;
7761;SDS011;3925;48.636;9.516;2022-12-07T13:27:39;5.23;;;4.70;;
7761;SDS011;3925;48.636;9.516;2022-12-07T13:30:11;4.17;;;3.77;;
7761;SDS011;3925;48.636;9.516;2022-12-07T13:32:41;5.10;;;3.67;;
7761;SDS011;3925;48.636;9.516;2022-12-07T13:35:28;3.40;;;3.10;;
7761;SDS011;3925;48.636;9.516;2022-12-07T13:37:56;5.77;;;5.17;;
7761;SDS011;3925;48.636;9.516;2022-12-07T13:40:23;5.03;;;4.30;;
7761;SDS011;3925;48.636;9.516;2022-12-07T13:42:58;4.70;;;4.13;;
7761;SDS011;3925;48.636;9.516;2022-12-07T13:45:27;4.90;;;4.40;;
7761;SDS011;3925;48.636;9.516;2022-12-07T13:48:10;5.57;;;4.47;;
7761;SDS011;3925;48.636;9.516;2022-12-07T13:50:42;4.20;;;3.80;;
7761;SDS011;3925;48.636;9.516;2022-12-07T13:53:11;5.40;;;4.30;;
7761;SDS011;3925;48.636;9.516;2022-12-07T13:55:44;5.23;;;3.97;;
7761;SDS011;3925;48.636;9.516;2022-12-07T13:58:13;6.80;;;4.20;;
7761;SDS011;3925;48.636;9.516;2022-12-07T14:00:40;6.50;;;4.43;;
7761;SDS011;3925;48.636;9.516;2022-12-07T14:03:28;7.30;;;4.43;;
7761;SDS011;3925;48.636;9.516;2022-12-07T14:06:17;4.70;;;4.20;;
7761;SDS011;3925;48.636;9.516;2022-12-07T14:08:50;4.70;;;3.93;;
7761;SDS011;3925;48.636;9.516;2022-12-07T14:11:31;4.00;;;3.60;;
7761;SDS011;3925;48.636;9.516;2022-12-07T14:14:00;4.67;;;3.70;;
7761;SDS011;3925;48.636;9.516;2022-12-07T14:16:29;5.80;;;4.10;;
7761;SDS011;3925;48.636;9.516;2022-12-07T14:18:58;5.90;;;3.90;;
7761;SDS011;3925;48.636;9.516;2022-12-07T14:21:26;4.60;;;4.10;;
7761;SDS011;3925;48.636;9.516;2022-12-07T14:24:11;4.83;;;4.43;;
7761;SDS011;3925;48.636;9.516;2022-12-07T14:26:43;4.93;;;4.30;;
7761;SDS011;3925;48.636;9.516;2022-12-07T14:29:32;5.20;;;4.20;;
7761;SDS011;3925;48.636;9.516;2022-12-07T14:32:17;4.77;;;4.23;;
7761;SDS011;3925;48.636;9.516;2022-12-07T14:34:58;4.53;;;4.07;;
7761;SDS011;3925;48.636;9.516;2022-12-07T14:37:27;4.10;;;3.67;;
7761;SDS011;3925;48.636;9.516;2022-12-07T14:39:55;4.47;;;4.07;;
7761;SDS011;3925;48.636;9.516;2022-12-07T14:42:23;6.17;;;4.30;;
7761;SDS011;3925;48.636;9.516;2022-12-07T14:44:54;6.00;;;4.50;;
7761;SDS011;3925;48.636;9.516;2022-12-07T14:47:21;6.83;;;4.50;;
7761;SDS011;3925;48.636;9.516;2022-12-07T14:49:49;7.87;;;4.60;;
7761;SDS011;3925;48.636;9.516;2022-12-07T14:52:16;4.80;;;4.40;;
7761;SDS011;3925;48.636;9.516;2022-12-07T14:54:45;7.83;;;6.37;;
7761;SDS011;3925;48.636;9.516;2022-12-07T14:57:12;9.10;;;6.53;;
7761;SDS011;3925;48.636;9.516;2022-12-07T14:59:39;5.23;;;4.73;;
7761;SDS011;3925;48.636;9.516;2022-12-07T15:02:09;6.20;;;5.60;;
7761;SDS011;3925;48.636;9.516;2022-12-07T15:04:38;6.90;;;6.07;;
7761;SDS011;3925;48.636;9.516;2022-12-07T15:07:06;17.33;;;9.67;;
7761;SDS011;3925;48.636;9.516;2022-12-07T15:09:45;13.20;;;9.40;;
7761;SDS011;3925;48.636;9.516;2022-12-07T15:12:12;8.20;;;7.23;;
7761;SDS011;3925;48.636;9.516;2022-12-07T15:14:39;7.30;;;6.60;;
7761;SDS011;3925;48.636;9.516;2022-12-07T15:17:08;6.23;;;5.63;;
7761;SDS011;3925;48.636;9.516;2022-12-07T15:19:37;6.60;;;5.40;;
7761;SDS011;3925;48.636;9.516;2022-12-07T15:22:04;7.07;;;6.37;;
7761;SDS011;3925;48.636;9.516;2022-12-07T15:24:31;9.80;;;7.20;;
7761;SDS011;3925;48.636;9.516;2022-12-07T15:26:59;10.10;;;8.93;;
7761;SDS011;3925;48.636;9.516;2022-12-07T15:29:26;7.87;;;7.17;;
7761;SDS011;3925;48.636;9.516;2022-12-07T15:31:53;7.60;;;6.80;;
7761;SDS011;3925;48.636;9.516;2022-12-07T15:34:21;6.43;;;5.73;;
7761;SDS011;3925;48.636;9.516;2022-12-07T15:36:49;6.43;;;5.80;;
7761;SDS011;3925;48.636;9.516;2022-12-07T15:39:17;8.80;;;7.30;;
7761;SDS011;3925;48.636;9.516;2022-12-07T15:41:43;7.30;;;6.40;;
7761;SDS011;3925;48.636;9.516;2022-12-07T15:44:11;9.40;;;6.27;;
7761;SDS011;3925;48.636;9.516;2022-12-07T15:46:56;6.47;;;5.23;;
7761;SDS011;3925;48.636;9.516;2022-12-07T15:49:25;7.30;;;5.77;;
7761;SDS011;3925;48.636;9.516;2022-12-07T15:51:52;6.27;;;5.67;;
7761;SDS011;3925;48.636;9.516;2022-12-07T15:54:20;6.63;;;5.70;;
7761;SDS011;3925;48.636;9.516;2022-12-07T15:56:48;7.60;;;5.40;;
7761;SDS011;3925;48.636;9.516;2022-12-07T15:59:15;8.43;;;7.53;;
7761;SDS011;3925;48.636;9.516;2022-12-07T16:01:43;7.40;;;6.03;;
7761;SDS011;3925;48.636;9.516;2022-12-07T16:04:10;7.77;;;6.97;;
7761;SDS011;3925;48.636;9.516;2022-12-07T16:06:38;10.03;;;7.33;;
7761;SDS011;3925;48.636;9.516;2022-12-07T16:09:05;9.77;;;8.80;;
7761;SDS011;3925;48.636;9.516;2022-12-07T16:11:33;8.80;;;7.47;;
7761;SDS011;3925;48.636;9.516;2022-12-07T16:14:01;9.63;;;6.70;;